Time;durP1;ratioP1;P1;durP2;ratioP2;P2;SDS_P1;SDS_P2;PMS_P1;PMS_P2;Temp;Humidity;BMP_temperature;BMP_pressure;BME280_temperature;BME280_humidity;BME280_pressure;Samples;Min_cycle;Max_cycle;Signal;HPM_P1;HPM_P2
2021/08/16 00:00:45;;;;;;;2.00;1.27;;;;;;;20.30;58.87;100359.69;5051733;28;20043;-92
2021/08/16 00:03:11;;;;;;;2.58;1.13;;;;;;;20.24;58.27;100363.03;5050356;28;20120;-91
2021/08/16 00:05:36;;;;;;;3.65;1.00;;;;;;;20.26;58.70;100365.50;5051536;28;20379;-93
2021/08/16 00:08:05;;;;;;;3.13;1.30;;;;;;;20.54;57.79;100366.78;5051509;28;20392;-92
2021/08/16 00:10:31;;;;;;;2.80;1.35;;;;;;;20.26;57.99;100368.16;5051602;28;20021;-93
2021/08/16 00:12:57;;;;;;;2.15;0.80;;;;;;;20.37;58.37;100371.31;5051524;28;20490;-92
2021/08/16 00:15:22;;;;;;;1.98;1.10;;;;;;;20.11;58.46;100376.03;5053404;28;20032;-93
2021/08/16 00:17:48;;;;;;;1.17;0.88;;;;;;;20.44;57.91;100374.16;5055657;28;20029;-92
2021/08/16 00:20:13;;;;;;;4.10;1.20;;;;;;;20.18;58.59;100388.50;5055570;28;20024;-93
2021/08/16 00:22:38;;;;;;;6.15;1.38;;;;;;;20.45;57.97;100386.47;5055412;28;20498;-92
2021/08/16 00:25:04;;;;;;;3.88;1.73;;;;;;;20.33;57.90;100390.50;5055534;28;20017;-91
2021/08/16 00:27:30;;;;;;;2.13;1.30;;;;;;;20.33;58.16;100395.81;5054238;28;20029;-92
2021/08/16 00:29:55;;;;;;;7.25;1.27;;;;;;;20.44;57.94;100392.81;5055474;28;20108;-91
2021/08/16 00:32:21;;;;;;;3.22;1.23;;;;;;;20.20;58.04;100386.50;5055161;28;20100;-92
2021/08/16 00:34:46;;;;;;;5.60;1.27;;;;;;;20.23;58.62;100395.16;5055160;28;20029;-92
2021/08/16 00:37:11;;;;;;;8.73;1.50;;;;;;;20.06;58.86;100389.81;5055164;28;20032;-92
2021/08/16 00:39:37;;;;;;;2.42;1.10;;;;;;;20.11;58.96;100397.34;5055289;28;20021;-91
2021/08/16 00:42:05;;;;;;;3.75;1.13;;;;;;;20.16;59.18;100390.50;5055025;28;20032;-92
2021/08/16 00:44:30;;;;;;;2.22;0.85;;;;;;;20.17;59.51;100392.16;5053728;28;20036;-92
2021/08/16 00:46:56;;;;;;;1.80;1.10;;;;;;;20.31;59.40;100396.00;5054905;28;20516;-92
2021/08/16 00:49:21;;;;;;;2.03;1.20;;;;;;;20.38;59.41;100393.50;5055031;28;20063;-92
2021/08/16 00:51:47;;;;;;;3.35;0.95;;;;;;;20.35;59.33;100389.31;5054770;28;20024;-92
2021/08/16 00:54:13;;;;;;;1.77;1.10;;;;;;;20.36;59.75;100395.50;5054577;28;20395;-92
2021/08/16 00:56:39;;;;;;;2.75;1.10;;;;;;;20.36;59.51;100400.84;5054924;28;20028;-92
2021/08/16 00:59:05;;;;;;;3.40;1.20;;;;;;;20.27;59.65;100397.31;5054822;28;20032;-92
2021/08/16 01:01:31;;;;;;;5.10;1.10;;;;;;;20.31;59.92;100395.16;5054667;28;20028;-92
2021/08/16 01:03:57;;;;;;;3.05;1.20;;;;;;;20.47;59.48;100402.31;5054676;28;20471;-92
2021/08/16 01:06:23;;;;;;;1.98;1.02;;;;;;;20.43;58.99;100399.16;5054681;28;20378;-92
2021/08/16 01:08:52;;;;;;;3.40;1.02;;;;;;;20.48;58.74;100402.16;5054727;28;20031;-92
2021/08/16 01:11:19;;;;;;;2.95;0.98;;;;;;;20.49;58.84;100402.97;5054648;28;20021;-92
2021/08/16 01:13:46;;;;;;;2.45;1.15;;;;;;;20.40;59.06;100402.16;5054377;28;20116;-92
2021/08/16 01:16:13;;;;;;;3.38;1.08;;;;;;;20.02;58.92;100396.47;5054532;28;20060;-92
2021/08/16 01:18:38;;;;;;;2.90;1.65;;;;;;;20.09;57.64;100413.50;5053258;28;20028;-92
2021/08/16 01:21:06;;;;;;;2.45;1.13;;;;;;;19.91;58.39;100402.16;5054444;28;20025;-92
2021/08/16 01:23:32;;;;;;;1.90;1.20;;;;;;;19.94;58.18;100401.81;5054314;28;20029;-92
2021/08/16 01:25:57;;;;;;;3.28;1.10;;;;;;;19.87;58.55;100414.16;5053788;28;20090;-92
2021/08/16 01:28:24;;;;;;;4.50;2.05;;;;;;;19.79;58.56;100410.47;5054288;28;20017;-92
2021/08/16 01:30:51;;;;;;;2.95;1.30;;;;;;;19.90;58.18;100419.13;5054111;28;20021;-92
2021/08/16 01:33:17;;;;;;;3.65;1.20;;;;;;;19.77;58.41;100407.13;5053974;28;20048;-93
2021/08/16 01:35:42;;;;;;;2.33;1.20;;;;;;;19.66;58.13;100404.75;5054111;28;20055;-92
2021/08/16 01:38:08;;;;;;;2.83;1.48;;;;;;;19.55;58.37;100403.22;5054157;28;20533;-93
2021/08/16 01:40:33;;;;;;;4.80;1.70;;;;;;;19.55;57.88;100407.72;5054066;28;20025;-92
2021/08/16 01:42:59;;;;;;;2.58;1.23;;;;;;;19.57;57.82;100405.75;5053791;28;20040;-92
2021/08/16 01:45:24;;;;;;;4.82;1.65;;;;;;;18.97;58.63;100410.16;5053848;28;20033;-94
2021/08/16 01:47:50;;;;;;;4.32;1.65;;;;;;;19.22;58.87;100408.44;5054088;28;20013;-92
2021/08/16 01:50:16;;;;;;;3.88;1.38;;;;;;;19.05;58.68;100401.38;5052708;28;20033;-93
2021/08/16 01:52:41;;;;;;;3.95;1.63;;;;;;;18.76;59.10;100407.00;5052607;28;20060;-92
2021/08/16 01:55:07;;;;;;;5.88;1.52;;;;;;;19.02;58.70;100407.03;5053637;28;20025;-93
2021/08/16 01:57:33;;;;;;;6.57;1.90;;;;;;;19.05;58.44;100414.69;5053620;28;20024;-92
2021/08/16 01:59:58;;;;;;;4.05;1.58;;;;;;;19.08;58.39;100401.06;5052275;28;20028;-93
2021/08/16 02:02:23;;;;;;;3.25;1.75;;;;;;;19.10;58.14;100416.88;5053717;28;20108;-92
2021/08/16 02:04:49;;;;;;;5.85;1.60;;;;;;;18.79;59.12;100417.34;5053442;28;20056;-93
2021/08/16 02:07:14;;;;;;;5.05;1.42;;;;;;;18.90;58.97;100418.94;5053492;28;20032;-92
2021/08/16 02:09:41;;;;;;;3.35;1.40;;;;;;;18.78;58.69;100411.22;5052535;28;20079;-92
2021/08/16 02:12:06;;;;;;;2.53;1.10;;;;;;;18.89;58.96;100422.59;5053488;28;20043;-92
2021/08/16 02:14:31;;;;;;;6.57;1.30;;;;;;;18.93;59.25;100421.28;5053067;28;20461;-92
2021/08/16 02:16:57;;;;;;;6.85;1.83;;;;;;;18.87;59.09;100411.28;5053486;28;20025;-92
2021/08/16 02:19:22;;;;;;;4.80;1.85;;;;;;;18.86;59.69;100422.91;5053352;28;20040;-93
2021/08/16 02:21:48;;;;;;;4.90;1.70;;;;;;;18.90;59.94;100433.09;5051866;28;20025;-92
2021/08/16 02:24:13;;;;;;;2.40;1.52;;;;;;;18.77;60.21;100429.97;5053174;28;20064;-92
2021/08/16 02:26:39;;;;;;;5.50;1.90;;;;;;;18.80;60.18;100429.72;5053113;28;20017;-92
2021/08/16 02:29:04;;;;;;;1.95;1.40;;;;;;;18.86;60.01;100434.41;5053093;28;20052;-92
2021/08/16 02:31:31;;;;;;;6.63;2.47;;;;;;;18.90;59.83;100429.56;5053101;28;20490;-93
2021/08/16 02:33:57;;;;;;;5.25;1.60;;;;;;;18.81;60.30;100442.00;5052860;28;20387;-93
2021/08/16 02:36:22;;;;;;;6.30;1.55;;;;;;;18.82;59.76;100444.50;5053046;28;20014;-92
2021/08/16 02:38:47;;;;;;;4.05;1.67;;;;;;;18.96;59.42;100450.25;5052186;28;20021;-92
2021/08/16 02:41:13;;;;;;;4.75;2.00;;;;;;;18.97;59.24;100439.41;5053043;28;20082;-92
2021/08/16 02:43:38;;;;;;;4.50;1.90;;;;;;;19.01;59.48;100438.13;5052722;28;20036;-92
2021/08/16 02:46:04;;;;;;;5.18;1.90;;;;;;;19.06;59.27;100439.50;5052723;28;20028;-92
2021/08/16 02:48:29;;;;;;;3.67;1.45;;;;;;;19.17;59.43;100441.84;5052724;28;20017;-92
2021/08/16 02:50:54;;;;;;;5.93;1.73;;;;;;;19.14;59.66;100436.88;5052778;28;20482;-93
2021/08/16 02:53:20;;;;;;;4.63;1.98;;;;;;;19.24;59.35;100453.53;5052858;28;20147;-93
2021/08/16 02:55:45;;;;;;;4.32;1.60;;;;;;;19.27;59.52;100461.19;5052636;28;20043;-92
2021/08/16 02:58:10;;;;;;;2.38;1.30;;;;;;;19.29;59.71;100464.53;5051045;28;20032;-92
2021/08/16 03:00:36;;;;;;;5.05;2.17;;;;;;;19.25;59.38;100454.38;5052567;28;20053;-92
2021/08/16 03:03:01;;;;;;;4.13;2.00;;;;;;;19.25;59.27;100449.88;5052446;28;20037;-92
2021/08/16 03:05:26;;;;;;;3.28;1.98;;;;;;;19.27;59.31;100458.53;5052484;28;20479;-92
2021/08/16 03:07:53;;;;;;;5.30;2.00;;;;;;;19.24;58.77;100469.50;5052422;28;20021;-92
2021/08/16 03:10:18;;;;;;;5.20;2.22;;;;;;;19.27;58.81;100471.84;5052455;28;20535;-92
2021/08/16 03:12:44;;;;;;;2.97;1.70;;;;;;;19.26;59.21;100470.19;5052196;28;20108;-92
2021/08/16 03:15:10;;;;;;;8.88;2.72;;;;;;;19.26;58.82;100470.19;5052243;28;20035;-93
2021/08/16 03:17:36;;;;;;;4.25;2.00;;;;;;;19.24;59.03;100464.19;5052270;28;20067;-92
2021/08/16 03:20:01;;;;;;;3.53;1.80;;;;;;;19.24;58.17;100476.66;5052248;28;20021;-93
2021/08/16 03:22:26;;;;;;;5.65;2.17;;;;;;;19.35;58.59;100479.03;5052147;28;20104;-93
2021/08/16 03:24:52;;;;;;;4.28;1.90;;;;;;;19.36;58.38;100486.03;5052112;28;20532;-92
2021/08/16 03:27:18;;;;;;;3.05;1.85;;;;;;;19.36;58.40;100494.84;5052327;28;20078;-92
2021/08/16 03:29:43;;;;;;;5.07;2.20;;;;;;;19.39;58.32;100483.03;5052147;28;20382;-92
2021/08/16 03:32:09;;;;;;;7.30;2.80;;;;;;;19.44;57.72;100493.22;5052057;28;20471;-92
2021/08/16 03:34:34;;;;;;;6.28;2.55;;;;;;;19.41;57.94;100494.38;5051797;28;20479;-91
2021/08/16 03:37:00;;;;;;;4.68;2.50;;;;;;;19.44;57.37;100491.41;5052073;28;20079;-92
2021/08/16 03:39:25;;;;;;;5.75;2.55;;;;;;;19.46;57.63;100499.22;5052047;28;20376;-93
2021/08/16 03:41:50;;;;;;;4.57;2.80;;;;;;;19.40;57.81;100493.53;5052090;28;20029;-92
2021/08/16 03:44:17;;;;;;;5.25;2.78;;;;;;;19.38;57.90;100498.19;5051868;28;20020;-92
2021/08/16 03:46:42;;;;;;;7.68;2.65;;;;;;;19.31;57.68;100493.66;5051899;28;20029;-93
2021/08/16 03:49:10;;;;;;;6.32;3.00;;;;;;;19.50;57.47;100489.94;5051644;28;20387;-92
2021/08/16 03:51:35;;;;;;;4.70;3.00;;;;;;;19.49;57.55;100496.22;5051817;28;20025;-92
2021/08/16 03:54:00;;;;;;;6.00;3.10;;;;;;;19.49;57.35;100498.91;5051582;28;20082;-92
2021/08/16 03:56:26;;;;;;;7.15;2.97;;;;;;;19.60;57.38;100490.63;5050415;28;20403;-92
2021/08/16 03:58:51;;;;;;;6.63;3.03;;;;;;;19.54;57.58;100499.25;5051742;28;20047;-92
2021/08/16 04:01:17;;;;;;;5.95;2.50;;;;;;;19.55;58.04;100501.78;5051975;28;20496;-91
2021/08/16 04:03:43;;;;;;;4.90;2.42;;;;;;;19.55;58.37;100495.59;5050382;28;20205;-92
2021/08/16 04:06:09;;;;;;;6.57;3.10;;;;;;;19.53;58.32;100506.44;5051740;28;20029;-92
2021/08/16 04:08:38;;;;;;;4.75;2.65;;;;;;;19.59;57.96;100510.28;5051629;28;20025;-92
2021/08/16 04:11:03;;;;;;;5.60;3.25;;;;;;;19.54;58.13;100513.41;5051564;28;20423;-92
2021/08/16 04:13:29;;;;;;;4.28;2.40;;;;;;;19.57;58.48;100529.06;5051567;28;20025;-93
2021/08/16 04:15:54;;;;;;;6.68;2.53;;;;;;;19.54;58.71;100528.56;5051561;28;20036;-92
2021/08/16 04:18:19;;;;;;;4.68;2.95;;;;;;;19.49;58.58;100528.19;5052028;28;20036;-92
2021/08/16 04:20:45;;;;;;;7.05;2.75;;;;;;;19.34;59.47;100526.13;5051505;28;20033;-93
2021/08/16 04:23:10;;;;;;;7.13;2.75;;;;;;;19.22;59.21;100522.91;5051981;28;20025;-92
2021/08/16 04:25:35;;;;;;;5.80;2.80;;;;;;;19.27;59.27;100517.09;5051459;28;20395;-92
2021/08/16 04:28:01;;;;;;;7.68;2.80;;;;;;;19.30;59.58;100527.44;5051404;28;20382;-92
2021/08/16 04:30:26;;;;;;;4.97;2.95;;;;;;;18.75;60.96;100536.50;5050068;28;20120;-92
2021/08/16 04:32:52;;;;;;;9.95;3.85;;;;;;;19.01;60.21;100538.41;5051316;28;20112;-92
2021/08/16 04:35:19;;;;;;;5.28;3.13;;;;;;;18.96;60.51;100544.19;5051323;28;20470;-93
2021/08/16 04:37:44;;;;;;;7.85;3.90;;;;;;;18.75;61.21;100543.66;5051364;28;20101;-91
2021/08/16 04:40:10;;;;;;;9.27;4.20;;;;;;;18.69;61.66;100549.59;5051332;28;20546;-92
2021/08/16 04:42:37;;;;;;;9.68;3.80;;;;;;;18.93;60.54;100554.31;5051296;28;20021;-92
2021/08/16 04:45:04;;;;;;;7.32;3.97;;;;;;;18.63;61.81;100562.50;5050014;28;20033;-92
2021/08/16 04:47:29;;;;;;;8.95;3.45;;;;;;;18.69;61.46;100565.56;5050051;28;20028;-92
2021/08/16 04:49:56;;;;;;;10.75;4.22;;;;;;;18.76;61.27;100558.63;5051388;28;20021;-93
2021/08/16 04:52:22;;;;;;;9.43;4.22;;;;;;;18.66;61.61;100564.06;5051249;28;20077;-92
2021/08/16 04:54:47;;;;;;;9.73;4.82;;;;;;;18.47;62.14;100556.22;5050947;28;20025;-92
2021/08/16 04:57:12;;;;;;;10.77;4.45;;;;;;;18.62;61.54;100573.31;5051150;28;20036;-92
2021/08/16 04:59:38;;;;;;;7.45;4.57;;;;;;;18.74;61.15;100568.59;5051348;28;20009;-93
2021/08/16 05:02:03;;;;;;;10.82;5.53;;;;;;;18.75;61.01;100567.59;5053978;28;20021;-92
2021/08/16 05:04:29;;;;;;;9.88;5.05;;;;;;;18.72;61.20;100570.56;5054678;28;20429;-93
2021/08/16 05:06:54;;;;;;;14.10;6.18;;;;;;;18.52;62.44;100575.22;5053560;28;20548;-93
2021/08/16 05:09:20;;;;;;;10.20;5.53;;;;;;;18.58;62.32;100569.28;5054640;28;20033;-92
2021/08/16 05:11:45;;;;;;;10.68;5.57;;;;;;;18.65;62.26;100585.47;5054596;28;20471;-91
2021/08/16 05:14:10;;;;;;;14.05;5.95;;;;;;;18.64;62.31;100581.97;5054412;28;20482;-92
2021/08/16 05:16:36;;;;;;;12.15;5.93;;;;;;;18.67;62.48;100584.34;5054724;28;20017;-92
2021/08/16 05:19:02;;;;;;;9.55;5.28;;;;;;;18.80;61.75;100584.81;5054714;28;20498;-92
2021/08/16 05:21:30;;;;;;;10.65;4.90;;;;;;;18.94;62.13;100590.59;5054488;28;20078;-92
2021/08/16 05:23:55;;;;;;;10.20;5.38;;;;;;;18.86;62.03;100583.38;5054332;28;20024;-92
2021/08/16 05:26:21;;;;;;;8.23;4.90;;;;;;;18.91;61.96;100586.38;5053133;28;20383;-93
2021/08/16 05:28:46;;;;;;;10.32;5.30;;;;;;;19.00;61.69;100587.31;5054556;28;20036;-92
2021/08/16 05:31:11;;;;;;;12.32;5.93;;;;;;;19.01;61.30;100589.78;5052960;28;20386;-92
2021/08/16 05:33:37;;;;;;;8.90;4.88;;;;;;;19.05;61.35;100586.84;5054087;28;20021;-92
2021/08/16 05:36:02;;;;;;;10.80;5.78;;;;;;;19.07;61.12;100582.19;5054199;28;20029;-92
2021/08/16 05:38:28;;;;;;;14.85;6.88;;;;;;;19.09;60.94;100588.19;5054146;28;20024;-92
2021/08/16 05:40:53;;;;;;;10.95;5.82;;;;;;;19.12;60.92;100587.88;5054210;28;20028;-92
2021/08/16 05:43:18;;;;;;;11.15;6.57;;;;;;;19.06;61.03;100591.19;5053983;28;20430;-92
2021/08/16 05:45:44;;;;;;;13.43;6.03;;;;;;;19.01;61.15;100587.13;5052685;28;20025;-92
2021/08/16 05:48:10;;;;;;;9.68;5.72;;;;;;;19.14;60.86;100604.53;5053963;28;20279;-92
2021/08/16 05:50:35;;;;;;;14.90;8.20;;;;;;;19.17;60.87;100606.88;5054003;28;20287;-93
2021/08/16 05:53:00;;;;;;;13.05;6.93;;;;;;;19.16;60.97;100606.03;5052505;28;20060;-92
2021/08/16 05:55:26;;;;;;;16.88;7.38;;;;;;;19.22;60.58;100604.59;5053726;28;20025;-94
2021/08/16 05:57:51;;;;;;;14.90;8.07;;;;;;;19.21;60.46;100622.41;5053908;28;20032;-92
2021/08/16 06:00:18;;;;;;;15.88;9.15;;;;;;;19.16;60.29;100610.53;5053677;28;20032;-92
2021/08/16 06:02:44;;;;;;;13.73;8.55;;;;;;;19.24;60.16;100617.75;5053802;28;20024;-93
2021/08/16 06:05:10;;;;;;;13.93;8.52;;;;;;;19.29;60.04;100632.25;5053465;28;20036;-92
2021/08/16 06:07:35;;;;;;;16.27;9.95;;;;;;;19.33;59.29;100628.31;5053594;28;20032;-93
2021/08/16 06:10:01;;;;;;;18.40;10.88;;;;;;;19.46;59.66;100632.38;5053702;28;20024;-92
2021/08/16 06:12:26;;;;;;;18.27;11.50;;;;;;;19.57;58.83;100634.78;5053531;28;20554;-93
2021/08/16 06:14:51;;;;;;;17.88;12.30;;;;;;;19.62;58.53;100645.78;5053196;28;20083;-92
2021/08/16 06:17:17;;;;;;;31.73;12.88;;;;;;;19.48;58.87;100635.72;5053523;28;20067;-92
2021/08/16 06:19:42;;;;;;;23.98;13.27;;;;;;;19.60;58.18;100634.47;5053421;28;20013;-93
2021/08/16 06:22:08;;;;;;;21.40;13.20;;;;;;;19.74;57.89;100635.72;5053348;28;20067;-93
2021/08/16 06:24:35;;;;;;;23.48;14.07;;;;;;;19.81;58.04;100644.78;5053164;28;20087;-92
2021/08/16 06:27:01;;;;;;;25.27;14.13;;;;;;;19.73;57.85;100648.22;5053261;28;20028;-92
2021/08/16 06:29:26;;;;;;;24.85;15.20;;;;;;;19.87;57.82;100645.97;5053045;28;20078;-92
2021/08/16 06:31:52;;;;;;;19.80;13.60;;;;;;;20.03;57.56;100646.03;5053372;28;20099;-92
2021/08/16 06:34:18;;;;;;;29.08;16.40;;;;;;;19.84;58.10;100648.94;5052929;28;20048;-92
2021/08/16 06:36:50;;;;;;;28.35;17.02;;;;;;;19.83;57.72;100645.44;5053169;28;20024;-92
2021/08/16 06:39:18;;;;;;;29.70;16.73;;;;;;;20.23;57.16;100657.28;5053028;28;20470;-92
2021/08/16 06:41:46;;;;;;;26.55;17.73;;;;;;;20.36;57.15;100660.31;5052733;28;20053;-92
2021/08/16 06:44:12;;;;;;;27.58;17.00;;;;;;;21.35;54.85;100658.63;5051692;28;20055;-92
2021/08/16 06:46:39;;;;;;;27.92;18.08;;;;;;;21.72;53.27;100659.94;5052861;28;20032;-92
2021/08/16 06:49:04;;;;;;;35.70;17.77;;;;;;;22.27;52.17;100654.75;5052758;28;20036;-92
2021/08/16 06:51:30;;;;;;;26.90;18.20;;;;;;;22.75;50.35;100656.31;5052768;28;20032;-92
2021/08/16 06:53:55;;;;;;;27.50;18.58;;;;;;;22.86;49.77;100657.72;5052466;28;20029;-92
2021/08/16 06:56:20;;;;;;;23.83;17.67;;;;;;;23.22;49.30;100651.78;5052561;28;20554;-92
2021/08/16 06:58:46;;;;;;;29.92;17.50;;;;;;;24.21;47.78;100650.72;5052586;28;20364;-93
2021/08/16 07:01:19;;;;;;;31.05;19.08;;;;;;;23.69;48.03;100665.91;5051218;28;20021;-93
2021/08/16 07:03:44;;;;;;;23.23;16.70;;;;;;;23.47;48.70;100667.63;5052582;28;20053;-93
2021/08/16 07:06:09;;;;;;;25.52;17.13;;;;;;;24.07;47.38;100673.88;5052265;28;20498;-93
2021/08/16 07:08:35;;;;;;;24.98;17.02;;;;;;;24.83;46.07;100669.00;5052427;28;20387;-92
2021/08/16 07:11:00;;;;;;;23.63;15.93;;;;;;;24.37;46.21;100674.69;5051083;28;20475;-93
2021/08/16 07:13:25;;;;;;;24.83;17.15;;;;;;;25.06;45.22;100678.72;5052295;28;20471;-93
2021/08/16 07:15:51;;;;;;;25.63;16.85;;;;;;;25.86;44.46;100690.13;5052094;28;20372;-93
2021/08/16 07:18:16;;;;;;;27.98;17.77;;;;;;;26.36;43.08;100692.66;5052703;28;20100;-93
2021/08/16 07:20:44;;;;;;;23.40;16.60;;;;;;;26.64;41.93;100696.13;5052191;28;20055;-93
2021/08/16 07:23:09;;;;;;;24.27;16.20;;;;;;;27.01;40.89;100696.56;5051873;28;20021;-93
2021/08/16 07:25:34;;;;;;;24.63;15.98;;;;;;;26.53;41.03;100685.88;5052057;28;20071;-93
2021/08/16 07:28:00;;;;;;;21.98;16.02;;;;;;;26.91;40.15;100686.19;5052035;28;20023;-93
2021/08/16 07:30:26;;;;;;;27.50;17.17;;;;;;;27.64;40.30;100681.88;5052088;28;20017;-93
2021/08/16 07:32:52;;;;;;;25.48;16.42;;;;;;;28.24;38.41;100679.88;5052015;28;20036;-94
2021/08/16 07:35:17;;;;;;;27.85;16.73;;;;;;;27.81;38.90;100687.66;5051798;28;20107;-94
2021/08/16 07:37:43;;;;;;;23.13;17.27;;;;;;;26.43;40.71;100683.56;5052240;28;20440;-92
2021/08/16 07:40:09;;;;;;;20.50;15.27;;;;;;;26.85;39.67;100692.41;5052309;28;20021;-93
2021/08/16 07:42:34;;;;;;;21.45;16.73;;;;;;;27.19;40.03;100687.06;5054732;28;20021;-93
2021/08/16 07:45:00;;;;;;;22.73;16.90;;;;;;;27.34;39.96;100695.00;5051679;28;20029;-92
2021/08/16 07:47:26;;;;;;;24.65;16.10;;;;;;;26.99;40.00;100700.53;5051955;28;20435;-93
2021/08/16 07:49:51;;;;;;;25.17;16.67;;;;;;;27.73;39.46;100690.59;5051737;28;20025;-93
2021/08/16 07:52:16;;;;;;;24.83;15.90;;;;;;;26.82;40.39;100703.63;5051729;28;20036;-93
2021/08/16 07:54:44;;;;;;;25.45;16.05;;;;;;;28.01;38.96;100712.75;5051374;28;20033;-93
2021/08/16 07:57:09;;;;;;;21.85;15.30;;;;;;;27.72;39.53;100718.59;5050499;28;20044;-94
2021/08/16 07:59:35;;;;;;;22.63;14.90;;;;;;;27.40;39.31;100718.41;5051856;28;20464;-93
2021/08/16 08:02:01;;;;;;;18.63;15.20;;;;;;;26.41;40.45;100730.59;5051905;28;20104;-96
2021/08/16 08:04:26;;;;;;;19.65;14.45;;;;;;;25.95;41.25;100734.69;5051529;28;20479;-92
2021/08/16 08:06:52;;;;;;;26.55;16.42;;;;;;;26.34;41.74;100730.53;5051707;28;20032;-93
2021/08/16 08:09:17;;;;;;;24.85;17.00;;;;;;;27.04;40.27;100733.09;5051588;28;20267;-92
2021/08/16 08:11:42;;;;;;;30.33;17.98;;;;;;;27.25;39.39;100735.63;5051510;28;20052;-92
2021/08/16 08:14:08;;;;;;;24.20;18.65;;;;;;;26.56;40.89;100738.50;5051528;28;20033;-94
2021/08/16 08:16:33;;;;;;;28.38;15.70;;;;;;;26.30;41.06;100743.59;5050391;28;20029;-92
2021/08/16 08:18:58;;;;;;;27.70;16.13;;;;;;;26.31;41.88;100736.34;5051543;28;20112;-92
2021/08/16 08:21:24;;;;;;;25.30;15.95;;;;;;;26.37;41.31;100729.31;5051791;28;20374;-93
2021/08/16 08:23:51;;;;;;;21.58;15.10;;;;;;;26.26;42.00;100736.94;5051316;28;20115;-93
2021/08/16 08:26:16;;;;;;;28.95;16.45;;;;;;;25.57;42.17;100736.88;5051464;28;20029;-93
2021/08/16 08:28:42;;;;;;;25.52;16.17;;;;;;;25.67;42.74;100740.03;5051374;28;20029;-94
2021/08/16 08:31:07;;;;;;;21.00;14.75;;;;;;;25.43;42.67;100735.94;5051614;28;20559;-93
2021/08/16 08:33:32;;;;;;;18.33;14.95;;;;;;;25.14;42.42;100743.91;5050015;28;20039;-93
2021/08/16 08:35:58;;;;;;;32.03;15.93;;;;;;;24.70;43.80;100752.09;5052249;28;20021;-93
2021/08/16 08:38:23;;;;;;;19.92;14.18;;;;;;;23.89;45.04;100760.88;5053902;28;20056;-93
2021/08/16 08:40:49;;;;;;;25.10;14.70;;;;;;;24.34;43.56;100755.56;5055116;28;20039;-92
2021/08/16 08:43:15;;;;;;;25.92;15.32;;;;;;;24.15;44.27;100760.47;5055081;28;20399;-93
2021/08/16 08:45:42;;;;;;;31.90;15.15;;;;;;;24.38;43.86;100759.53;5053900;28;20454;-93
2021/08/16 08:48:09;;;;;;;22.23;14.20;;;;;;;24.08;44.65;100769.44;5055116;28;20017;-93
2021/08/16 08:50:34;;;;;;;28.10;13.45;;;;;;;23.36;45.02;100770.72;5054992;28;20017;-93
2021/08/16 08:53:02;;;;;;;25.88;14.60;;;;;;;23.74;45.15;100774.25;5054688;28;20025;-92
2021/08/16 08:55:28;;;;;;;22.15;13.15;;;;;;;22.96;46.46;100772.63;5054780;28;20364;-92
2021/08/16 08:57:54;;;;;;;29.33;13.25;;;;;;;23.34;46.21;100773.59;5054718;28;20029;-93
2021/08/16 09:00:19;;;;;;;24.15;13.63;;;;;;;22.85;46.98;100773.88;5054799;28;20033;-92
2021/08/16 09:02:59;;;;;;;27.05;14.43;;;;;;;23.14;46.71;100775.06;5054807;28;20021;-92
2021/08/16 09:05:24;;;;;;;24.05;13.93;;;;;;;23.24;46.72;100764.09;5053439;28;20021;-92
2021/08/16 09:07:50;;;;;;;18.88;12.65;;;;;;;22.64;47.09;100776.31;5053428;28;20481;-92
2021/08/16 09:10:17;;;;;;;23.45;14.02;;;;;;;23.04;47.56;100774.44;5054605;28;20047;-92
2021/08/16 09:12:44;;;;;;;22.95;13.52;;;;;;;23.19;46.74;100777.22;5054716;28;20061;-92
2021/08/16 09:15:18;;;;;;;21.42;12.68;;;;;;;22.88;46.90;100778.84;5054569;28;20040;-92
2021/08/16 09:17:44;;;;;;;22.10;12.95;;;;;;;23.63;45.78;100776.53;5054589;28;20100;-93
2021/08/16 09:20:20;;;;;;;19.73;13.05;;;;;;;24.25;45.73;100778.97;5054712;28;20025;-92
2021/08/16 09:22:59;;;;;;;20.75;13.63;;;;;;;24.77;44.18;100785.25;5054320;28;20021;-92
2021/08/16 09:25:38;;;;;;;16.33;11.23;;;;;;;24.44;43.90;100793.66;5054381;28;20048;-92
2021/08/16 09:28:07;;;;;;;17.50;11.75;;;;;;;24.24;43.97;100804.13;5054564;28;20029;-92
2021/08/16 09:30:39;;;;;;;17.50;10.88;;;;;;;24.04;44.12;100809.19;5054162;28;20028;-93
2021/08/16 09:33:15;;;;;;;18.38;11.43;;;;;;;23.34;44.84;100816.47;5054147;28;20053;-92
2021/08/16 09:35:49;;;;;;;21.23;11.60;;;;;;;23.46;45.89;100813.34;5054799;28;20056;-92
2021/08/16 09:38:14;;;;;;;27.45;12.25;;;;;;;24.06;44.92;100801.81;5054149;28;20517;-92
2021/08/16 09:40:40;;;;;;;18.25;11.38;;;;;;;23.70;45.89;100810.47;5053065;28;20052;-91
2021/08/16 09:43:05;;;;;;;21.38;11.18;;;;;;;23.46;44.74;100826.75;5052853;28;20454;-94
2021/08/16 09:45:38;;;;;;;17.85;10.50;;;;;;;23.81;44.82;100821.81;5053836;28;20434;-92
2021/08/16 09:48:06;;;;;;;20.23;10.95;;;;;;;23.90;45.17;100815.38;5053678;28;20055;-92
2021/08/16 09:50:43;;;;;;;17.75;11.82;;;;;;;24.03;44.60;100826.31;5053882;28;20127;-93
2021/08/16 09:53:16;;;;;;;18.80;10.55;;;;;;;24.38;45.10;100831.16;5053547;28;20035;-93
2021/08/16 09:55:44;;;;;;;18.52;9.82;;;;;;;24.37;44.27;100833.03;5053935;28;20471;-92
2021/08/16 09:58:15;;;;;;;18.05;10.07;;;;;;;24.49;44.83;100842.28;5053832;28;20107;-93
2021/08/16 10:00:42;;;;;;;15.35;10.18;;;;;;;23.74;45.28;100835.91;5054000;28;20521;-92
2021/08/16 10:03:10;;;;;;;16.88;9.15;;;;;;;23.40;44.13;100841.72;5053633;28;20051;-93
2021/08/16 10:05:47;;;;;;;13.02;8.32;;;;;;;24.22;43.13;100832.16;5052413;28;20409;-93
2021/08/16 10:08:19;;;;;;;12.23;6.68;;;;;;;24.56;43.17;100842.38;5053862;28;20096;-92
2021/08/16 10:10:46;;;;;;;14.27;6.63;;;;;;;24.22;41.98;100842.91;5053801;28;20029;-92
2021/08/16 10:13:12;;;;;;;10.75;6.70;;;;;;;23.68;42.70;100844.69;5053600;28;20021;-94
2021/08/16 10:15:47;;;;;;;12.57;6.53;;;;;;;23.61;41.65;100857.13;5053402;28;20053;-93
2021/08/16 10:18:41;;;;;;;9.85;6.28;;;;;;;24.51;41.00;100851.00;5053379;28;20048;-93
2021/08/16 10:21:07;;;;;;;18.25;6.90;;;;;;;24.79;41.23;100847.66;5053456;28;20047;-92
2021/08/16 10:23:33;;;;;;;10.77;5.72;;;;;;;24.99;40.60;100844.38;5053355;28;20033;-93
2021/08/16 10:25:58;;;;;;;10.45;6.25;;;;;;;24.85;39.88;100835.34;5053132;28;20025;-92
2021/08/16 10:28:32;;;;;;;13.10;6.38;;;;;;;25.33;39.81;100847.28;5053020;28;20097;-93
2021/08/16 10:31:00;;;;;;;8.43;5.65;;;;;;;25.15;40.53;100854.91;5053137;28;20112;-92
2021/08/16 10:33:26;;;;;;;12.68;6.40;;;;;;;24.60;41.16;100864.31;5053386;28;20016;-92
2021/08/16 10:35:52;;;;;;;11.85;6.55;;;;;;;24.48;41.10;100847.81;5052950;28;20036;-92
2021/08/16 10:38:19;;;;;;;12.38;6.05;;;;;;;24.78;41.90;100859.41;5053072;28;20092;-92
2021/08/16 10:40:58;;;;;;;15.98;7.85;;;;;;;24.70;42.18;100864.88;5052862;28;20112;-92
2021/08/16 10:43:32;;;;;;;17.02;7.15;;;;;;;23.96;43.12;100868.28;5052751;28;20029;-92
2021/08/16 10:45:58;;;;;;;12.48;7.22;;;;;;;24.05;43.38;100867.22;5052688;28;20020;-92
2021/08/16 10:48:25;;;;;;;12.27;7.20;;;;;;;23.62;43.55;100887.44;5052767;28;20036;-93
2021/08/16 10:51:10;;;;;;;13.15;6.72;;;;;;;24.13;43.37;100877.88;5052592;28;20100;-92
2021/08/16 10:53:52;;;;;;;13.35;7.07;;;;;;;23.71;43.67;100876.47;5052521;28;20113;-92
2021/08/16 10:56:20;;;;;;;18.52;8.07;;;;;;;23.62;44.21;100877.56;5052769;28;20053;-92
2021/08/16 10:58:47;;;;;;;15.98;8.07;;;;;;;23.99;44.38;100884.00;5051975;28;20074;-92
2021/08/16 11:01:29;;;;;;;15.38;7.70;;;;;;;24.13;44.02;100868.97;5052575;28;20036;-92
2021/08/16 11:04:05;;;;;;;13.75;7.95;;;;;;;24.49;43.19;100879.84;5052339;28;20032;-92
2021/08/16 11:06:31;;;;;;;11.13;6.63;;;;;;;24.45;42.94;100881.25;5052336;28;20064;-92
2021/08/16 11:08:56;;;;;;;15.52;6.72;;;;;;;24.15;42.57;100883.03;5052312;28;20060;-92
2021/08/16 11:11:22;;;;;;;13.25;6.43;;;;;;;24.31;41.97;100876.69;5052351;28;20060;-93
2021/08/16 11:13:47;;;;;;;11.18;6.68;;;;;;;24.12;42.18;100880.72;5052239;28;20072;-92
2021/08/16 11:16:13;;;;;;;11.25;6.35;;;;;;;24.07;42.36;100875.06;5052237;28;20079;-92